Terminal Aerodrome Forecast
Issued by NWS Louisville, KY

Home | Current Version | Previous Version | Text Only | Print | Product List | Glossary On
Versions: 1 2 3 4 5 6 7 8 9 10 11 12 13 14 15
000
FTUS43 KLMK 261125
TAFSDF
TAF
KSDF 261125Z 2612/2718 VRB03KT P6SM SCT250
     FM261500 14003KT P6SM SCT040
     FM270200 09004KT P6SM SCT250
     FM271400 12006KT P6SM SCT040=

USA.gov is the U.S. government's official web portal to all federal, state and local government web resources and services.